createdAt,value
2017-11-19T00:00:56.053Z,100267.53
2017-11-19T00:03:24.378Z,100275.06
2017-11-19T00:05:52.307Z,100266.66
2017-11-19T00:08:20.244Z,100270.52
2017-11-19T00:10:48.159Z,100275.66
2017-11-19T00:13:16.121Z,100269.42
2017-11-19T00:15:44.071Z,100256.55
2017-11-19T00:18:12.395Z,100269.79
2017-11-19T00:20:40.403Z,100267.66
2017-11-19T00:23:08.341Z,100258.73
2017-11-19T00:25:36.298Z,100256.62
2017-11-19T00:28:04.221Z,100258.73
2017-11-19T00:30:32.547Z,100253.52
2017-11-19T00:33:00.501Z,100252.67
2017-11-19T00:35:28.490Z,100250.96
2017-11-19T00:37:56.595Z,100237.99
2017-11-19T00:40:24.546Z,100244.81
2017-11-19T00:42:52.672Z,100236.23
2017-11-19T00:45:20.707Z,100230.27
2017-11-19T00:47:48.635Z,100243.77
2017-11-19T00:50:16.741Z,100237.73
2017-11-19T00:52:44.687Z,100235.76
2017-11-19T00:55:12.699Z,100228.00
2017-11-19T00:57:41.115Z,100235.25
2017-11-19T01:00:09.051Z,100235.27
2017-11-19T01:02:37.442Z,100226.48
2017-11-19T01:05:25.031Z,100227.42
2017-11-19T01:07:53.071Z,100227.73
2017-11-19T01:10:21.104Z,100222.77
2017-11-19T01:12:49.054Z,100215.16
2017-11-19T01:15:16.981Z,100209.18
2017-11-19T01:17:44.896Z,100202.49
2017-11-19T01:20:13.350Z,100206.06
2017-11-19T01:22:41.279Z,100200.98
2017-11-19T01:25:09.204Z,100198.42
2017-11-19T01:27:37.762Z,100195.51
2017-11-19T01:30:05.684Z,100200.36
2017-11-19T01:32:33.615Z,100196.87
2017-11-19T01:35:01.594Z,100188.38
2017-11-19T01:37:29.889Z,100185.04
2017-11-19T01:39:57.797Z,100186.60
2017-11-19T01:42:25.751Z,100180.23
2017-11-19T01:44:53.713Z,100169.72
2017-11-19T01:47:21.673Z,100166.72
2017-11-19T01:49:49.582Z,100170.44
2017-11-19T01:52:17.518Z,100165.94
2017-11-19T01:54:45.564Z,100165.77
2017-11-19T01:57:13.881Z,100156.58
2017-11-19T01:59:41.824Z,100154.94
2017-11-19T02:02:09.753Z,100155.63
2017-11-19T02:04:37.679Z,100149.08
2017-11-19T02:07:05.673Z,100139.88
2017-11-19T02:09:34.461Z,100140.55
2017-11-19T02:12:02.455Z,100137.57
2017-11-19T02:14:30.371Z,100138.56
2017-11-19T02:16:58.298Z,100133.02
2017-11-19T02:19:26.264Z,100135.67
2017-11-19T02:21:54.167Z,100149.17
2017-11-19T02:24:22.204Z,100136.09
2017-11-19T02:26:50.124Z,100144.30
2017-11-19T02:29:18.047Z,100134.05
2017-11-19T02:31:46.363Z,100139.45
2017-11-19T02:34:14.318Z,100139.66
2017-11-19T02:36:42.252Z,100137.88
2017-11-19T02:39:10.151Z,100143.97
2017-11-19T02:41:38.077Z,100116.78
2017-11-19T02:44:06.000Z,100121.02
2017-11-19T02:46:34.046Z,100118.20
2017-11-19T02:49:01.971Z,100112.88
2017-11-19T02:51:29.906Z,100114.91
2017-11-19T02:53:57.864Z,100123.48
2017-11-19T02:56:25.799Z,100103.38
2017-11-19T02:58:53.750Z,100095.52
2017-11-19T03:01:21.660Z,100110.20
2017-11-19T03:03:49.565Z,100100.11
2017-11-19T03:06:17.490Z,100100.34
2017-11-19T03:08:45.406Z,100106.05
2017-11-19T03:11:13.341Z,100087.35
2017-11-19T03:13:41.319Z,100087.70
2017-11-19T03:16:09.284Z,100083.83
2017-11-19T03:18:37.257Z,100085.09
2017-11-19T03:21:05.192Z,100078.61
2017-11-19T03:23:33.591Z,100084.35
2017-11-19T03:26:01.537Z,100081.77
2017-11-19T03:28:29.869Z,100074.05
2017-11-19T03:30:57.803Z,100078.34
2017-11-19T03:33:25.743Z,100088.36
2017-11-19T03:35:54.051Z,100084.13
2017-11-19T03:38:21.997Z,100080.17
2017-11-19T03:40:50.447Z,100079.54
2017-11-19T03:43:18.422Z,100078.33
2017-11-19T03:45:46.396Z,100073.56
2017-11-19T03:48:14.301Z,100068.91
2017-11-19T03:50:42.222Z,100073.30
2017-11-19T03:53:10.139Z,100079.75
2017-11-19T03:55:38.067Z,100075.78
2017-11-19T03:58:06.008Z,100062.83
2017-11-19T04:00:34.014Z,100063.53
2017-11-19T04:03:01.970Z,100061.44
2017-11-19T04:05:29.891Z,100063.58
2017-11-19T04:07:57.866Z,100061.95
2017-11-19T04:10:25.785Z,100060.66
2017-11-19T04:12:53.708Z,100061.09
2017-11-19T04:15:21.675Z,100060.77
2017-11-19T04:17:49.590Z,100054.33
2017-11-19T04:20:17.601Z,100056.02
2017-11-19T04:22:45.554Z,100051.27
2017-11-19T04:25:13.865Z,100055.05
2017-11-19T04:27:41.778Z,100054.58
2017-11-19T04:30:09.695Z,100050.58
2017-11-19T04:32:37.715Z,100051.80
2017-11-19T04:35:05.707Z,100039.16
2017-11-19T04:37:34.009Z,100035.14
2017-11-19T04:40:02.026Z,100027.55
2017-11-19T04:42:29.974Z,100023.62
2017-11-19T04:44:57.919Z,100020.28
2017-11-19T04:47:25.953Z,100016.34
2017-11-19T04:49:54.259Z,100021.09
2017-11-19T04:52:22.231Z,100028.58
2017-11-19T04:54:50.144Z,100015.98
2017-11-19T04:57:18.065Z,100011.88
2017-11-19T04:59:46.002Z,100004.06
2017-11-19T05:02:14.324Z,100010.00
2017-11-19T05:04:42.229Z,100010.80
2017-11-19T05:07:10.356Z,100017.70
2017-11-19T05:09:38.269Z,100002.17
2017-11-19T05:12:06.234Z,99995.29
2017-11-19T05:14:34.129Z,99991.97
2017-11-19T05:17:02.445Z,99996.16
2017-11-19T05:19:30.398Z,99991.98
2017-11-19T05:21:58.445Z,99986.84
2017-11-19T05:24:26.316Z,99979.20
2017-11-19T05:26:54.365Z,99974.50
2017-11-19T05:29:22.849Z,99969.77
2017-11-19T05:31:50.786Z,99970.72
2017-11-19T05:34:18.709Z,99975.50
2017-11-19T05:36:47.052Z,99964.31
2017-11-19T05:39:15.026Z,99969.94
2017-11-19T05:41:42.921Z,99968.38
2017-11-19T05:44:10.833Z,99975.16
2017-11-19T05:46:38.833Z,99968.79
2017-11-19T05:49:06.737Z,99970.14
2017-11-19T05:51:34.656Z,99971.98
2017-11-19T05:54:02.634Z,99970.28
2017-11-19T05:56:30.574Z,99969.73
2017-11-19T05:58:58.510Z,99975.91
2017-11-19T06:01:26.546Z,99977.43
2017-11-19T06:03:54.452Z,99979.22
2017-11-19T06:06:22.418Z,99975.79
2017-11-19T06:08:50.338Z,99983.05
2017-11-19T06:11:18.317Z,99971.88
2017-11-19T06:13:46.285Z,99969.80
2017-11-19T06:16:14.194Z,99970.23
2017-11-19T06:18:42.112Z,99976.34
2017-11-19T06:21:10.080Z,99967.86
2017-11-19T06:23:38.069Z,99974.37
2017-11-19T06:26:05.978Z,99965.38
2017-11-19T06:28:33.891Z,99956.78
2017-11-19T06:31:01.839Z,99960.37
2017-11-19T06:33:30.742Z,99958.98
2017-11-19T06:35:58.834Z,99956.38
2017-11-19T06:38:26.749Z,99960.02
2017-11-19T06:40:54.691Z,99958.28
2017-11-19T06:43:22.995Z,99958.34
2017-11-19T06:45:50.902Z,99958.46
2017-11-19T06:48:18.873Z,99967.37
2017-11-19T06:50:46.775Z,99968.30
2017-11-19T06:53:15.093Z,99964.59
2017-11-19T06:55:42.994Z,99961.31
2017-11-19T06:58:10.954Z,99962.66
2017-11-19T07:00:38.921Z,99961.75
2017-11-19T07:03:06.828Z,99959.48
2017-11-19T07:05:35.166Z,99964.81
2017-11-19T07:08:03.082Z,99963.15
2017-11-19T07:10:30.994Z,99963.20
2017-11-19T07:12:58.974Z,99966.25
2017-11-19T07:15:26.901Z,99972.43
2017-11-19T07:17:54.802Z,99959.62
2017-11-19T07:20:22.732Z,99944.55
2017-11-19T07:22:50.658Z,99947.20
2017-11-19T07:25:18.612Z,99956.30
2017-11-19T07:27:46.538Z,99945.28
2017-11-19T07:30:14.511Z,99947.05
2017-11-19T07:32:42.463Z,99949.23
2017-11-19T07:35:10.490Z,99944.20
2017-11-19T07:37:38.415Z,99937.42
2017-11-19T07:40:06.353Z,99932.99
2017-11-19T07:42:34.714Z,99928.98
2017-11-19T07:45:02.626Z,99930.83
2017-11-19T07:47:30.642Z,99923.20
2017-11-19T07:49:58.557Z,99919.92
2017-11-19T07:52:26.469Z,99909.91
2017-11-19T07:54:54.557Z,99906.25
2017-11-19T07:57:22.921Z,99912.39
2017-11-19T07:59:50.907Z,99906.77
2017-11-19T08:02:18.925Z,99907.20
2017-11-19T08:04:46.852Z,99902.42
2017-11-19T08:07:14.750Z,99915.16
2017-11-19T08:09:42.790Z,99923.38
2017-11-19T08:12:10.759Z,99915.31
2017-11-19T08:14:44.151Z,99923.80
2017-11-19T08:17:12.106Z,99929.28
2017-11-19T08:19:40.010Z,99928.97
2017-11-19T08:22:07.994Z,99933.09
2017-11-19T08:24:35.923Z,99916.90
2017-11-19T08:27:04.252Z,99923.58
2017-11-19T08:29:32.357Z,99920.14
2017-11-19T08:32:00.330Z,99923.16
2017-11-19T08:34:28.770Z,99904.19
2017-11-19T08:36:56.679Z,99924.75
2017-11-19T08:39:24.869Z,99921.61
2017-11-19T08:41:52.781Z,99925.16
2017-11-19T08:44:20.685Z,99907.51
2017-11-19T08:46:48.758Z,99913.98
2017-11-19T08:49:16.842Z,99918.54
2017-11-19T08:51:44.897Z,99906.42
2017-11-19T08:54:12.809Z,99908.97
2017-11-19T08:56:40.709Z,99912.51
2017-11-19T08:59:08.622Z,99910.55
2017-11-19T09:01:37.027Z,99907.09
2017-11-19T09:04:05.157Z,99901.08
2017-11-19T09:06:33.226Z,99903.61
2017-11-19T09:09:01.133Z,99910.33
2017-11-19T09:11:29.479Z,99900.31
2017-11-19T09:13:57.430Z,99908.36
2017-11-19T09:16:25.435Z,99918.49
2017-11-19T09:18:53.813Z,99904.61
2017-11-19T09:21:22.114Z,99914.23
2017-11-19T09:23:50.038Z,99921.09
2017-11-19T09:26:17.966Z,99897.78
2017-11-19T09:28:45.976Z,99908.78
2017-11-19T09:31:13.898Z,99906.03
2017-11-19T09:33:41.807Z,99915.47
2017-11-19T09:36:09.796Z,99929.59
2017-11-19T09:38:37.709Z,99918.23
2017-11-19T09:41:05.627Z,99911.40
2017-11-19T09:43:33.790Z,99912.37
2017-11-19T09:46:01.759Z,99907.80
2017-11-19T09:48:29.693Z,99901.20
2017-11-19T09:50:57.601Z,99896.80
2017-11-19T09:53:25.501Z,99895.70
2017-11-19T09:55:53.432Z,99901.70
2017-11-19T09:58:21.336Z,99898.34
2017-11-19T10:00:49.315Z,99892.20
2017-11-19T10:03:17.220Z,99895.33
2017-11-19T10:05:45.216Z,99888.48
2017-11-19T10:08:13.189Z,99898.84
2017-11-19T10:10:41.112Z,99907.52
2017-11-19T10:13:09.009Z,99888.09
2017-11-19T10:15:36.983Z,99899.09
2017-11-19T10:18:04.897Z,99888.20
2017-11-19T10:20:32.913Z,99892.77
2017-11-19T10:23:00.889Z,99885.17
2017-11-19T10:25:28.798Z,99875.47
2017-11-19T10:27:56.722Z,99887.13
2017-11-19T10:30:24.629Z,99888.20
2017-11-19T10:32:52.726Z,99882.61
2017-11-19T10:35:20.734Z,99883.06
2017-11-19T10:37:48.639Z,99883.17
2017-11-19T10:40:16.553Z,99878.09
2017-11-19T10:42:44.463Z,99876.09
2017-11-19T10:45:12.776Z,99874.48
2017-11-19T10:47:40.811Z,99878.38
2017-11-19T10:50:09.157Z,99867.29
2017-11-19T10:52:37.064Z,99865.05
2017-11-19T10:55:04.966Z,99869.85
2017-11-19T10:57:32.894Z,99863.93
2017-11-19T11:00:00.803Z,99861.94
2017-11-19T11:02:29.330Z,99860.23
2017-11-19T11:04:57.626Z,99867.77
2017-11-19T11:07:25.556Z,99867.80
2017-11-19T11:09:53.467Z,99858.12
2017-11-19T11:12:21.370Z,99870.61
2017-11-19T11:14:49.367Z,99877.06
2017-11-19T11:17:17.303Z,99885.56
2017-11-19T11:19:45.246Z,99883.78
2017-11-19T11:22:13.162Z,99880.53
2017-11-19T11:24:41.154Z,99878.11
2017-11-19T11:27:09.485Z,99865.70
2017-11-19T11:29:37.381Z,99865.42
2017-11-19T11:32:05.313Z,99867.05
2017-11-19T11:34:33.228Z,99859.21
2017-11-19T11:37:01.166Z,99859.56
2017-11-19T11:39:29.099Z,99868.62
2017-11-19T11:41:57.001Z,99855.15
2017-11-19T11:44:24.926Z,99855.00
2017-11-19T11:46:52.866Z,99843.05
2017-11-19T11:49:20.827Z,99850.81
2017-11-19T11:51:48.746Z,99843.85
2017-11-19T11:54:16.669Z,99851.26
2017-11-19T11:56:44.576Z,99851.04
2017-11-19T11:59:12.485Z,99852.02
2017-11-19T12:01:40.386Z,99846.28
2017-11-19T12:04:08.717Z,99848.34
2017-11-19T12:06:36.629Z,99857.02
2017-11-19T12:09:04.934Z,99853.39
2017-11-19T12:11:32.842Z,99844.23
2017-11-19T12:14:00.756Z,99849.10
2017-11-19T12:16:29.101Z,99846.22
2017-11-19T12:18:57.021Z,99856.98
2017-11-19T12:21:24.951Z,99858.69
2017-11-19T12:23:52.857Z,99850.70
2017-11-19T12:26:20.784Z,99848.77
2017-11-19T12:28:48.734Z,99855.53
2017-11-19T12:31:16.660Z,99853.83
2017-11-19T12:33:44.614Z,99843.81
2017-11-19T12:36:12.923Z,99858.02
2017-11-19T12:38:40.823Z,99860.95
2017-11-19T12:41:08.733Z,99854.38
2017-11-19T12:43:36.655Z,99858.00
2017-11-19T12:46:04.563Z,99864.53
2017-11-19T12:48:32.499Z,99854.71
2017-11-19T12:51:00.429Z,99848.73
2017-11-19T12:53:28.351Z,99848.20
2017-11-19T12:55:56.684Z,99849.44
2017-11-19T12:58:24.611Z,99860.67
2017-11-19T13:00:52.905Z,99855.55
2017-11-19T13:03:20.849Z,99850.08
2017-11-19T13:05:49.160Z,99861.72
2017-11-19T13:08:17.091Z,99858.78
2017-11-19T13:10:45.416Z,99865.38
2017-11-19T13:13:13.337Z,99853.27
2017-11-19T13:15:41.649Z,99852.44
2017-11-19T13:18:09.561Z,99864.72
2017-11-19T13:20:37.488Z,99858.69
2017-11-19T13:23:05.393Z,99849.21
2017-11-19T13:25:33.382Z,99852.58
2017-11-19T13:28:01.684Z,99840.91
2017-11-19T13:30:29.595Z,99848.60
2017-11-19T13:32:57.504Z,99852.77
2017-11-19T13:35:25.816Z,99856.53
2017-11-19T13:37:53.721Z,99861.60
2017-11-19T13:40:22.401Z,99854.26
2017-11-19T13:42:50.297Z,99860.65
2017-11-19T13:45:18.610Z,99861.45
2017-11-19T13:47:46.513Z,99873.09
2017-11-19T13:50:14.456Z,99879.91
2017-11-19T13:52:42.386Z,99883.83
2017-11-19T13:55:11.721Z,99871.32
2017-11-19T13:57:39.657Z,99889.86
2017-11-19T14:00:07.970Z,99882.53
2017-11-19T14:02:35.895Z,99891.73
2017-11-19T14:05:04.251Z,99894.31
2017-11-19T14:07:32.213Z,99879.67
2017-11-19T14:10:00.148Z,99885.23
2017-11-19T14:12:28.067Z,99884.84
2017-11-19T14:14:55.985Z,99883.89
2017-11-19T14:17:23.927Z,99887.00
2017-11-19T14:19:51.866Z,99884.81
2017-11-19T14:22:19.787Z,99885.64
2017-11-19T14:24:47.698Z,99893.46
2017-11-19T14:27:15.610Z,99889.14
2017-11-19T14:29:43.633Z,99875.80
2017-11-19T14:32:11.561Z,99876.34
2017-11-19T14:34:39.468Z,99879.25
2017-11-19T14:37:07.434Z,99877.61
2017-11-19T14:39:35.416Z,99868.06
2017-11-19T14:42:03.348Z,99873.59
2017-11-19T14:44:31.258Z,99874.25
2017-11-19T14:46:59.174Z,99872.40
2017-11-19T14:49:27.077Z,99880.45
2017-11-19T14:51:55.003Z,99879.48
2017-11-19T14:54:22.928Z,99881.50
2017-11-19T14:56:50.858Z,99889.30
2017-11-19T14:59:18.783Z,99897.40
2017-11-19T15:01:47.118Z,99891.30
2017-11-19T15:04:15.033Z,99894.69
2017-11-19T15:06:43.341Z,99890.27
2017-11-19T15:09:11.259Z,99894.56
2017-11-19T15:11:39.623Z,99896.72
2017-11-19T15:14:07.537Z,99902.30
2017-11-19T15:16:35.535Z,99910.45
2017-11-19T15:19:03.485Z,99915.20
2017-11-19T15:21:31.407Z,99928.73
2017-11-19T15:23:59.349Z,99924.00
2017-11-19T15:26:28.271Z,99926.70
2017-11-19T15:28:56.598Z,99934.98
2017-11-19T15:31:24.513Z,99924.84
2017-11-19T15:33:52.431Z,99931.70
2017-11-19T15:36:20.450Z,99935.04
2017-11-19T15:38:48.450Z,99933.30
2017-11-19T15:41:16.586Z,99940.02
2017-11-19T15:43:44.578Z,99943.09
2017-11-19T15:46:12.908Z,99925.81
2017-11-19T15:48:41.870Z,99927.11
2017-11-19T15:51:09.810Z,99926.47
2017-11-19T15:53:38.141Z,99927.17
2017-11-19T15:56:06.043Z,99937.00
2017-11-19T15:58:33.966Z,99932.27
2017-11-19T16:01:01.877Z,99917.19
2017-11-19T16:03:29.828Z,99919.34
2017-11-19T16:05:57.754Z,99910.39
2017-11-19T16:08:25.681Z,99920.41
2017-11-19T16:10:54.470Z,99951.28
2017-11-19T16:13:22.405Z,99954.80
2017-11-19T16:15:50.338Z,99957.33
2017-11-19T16:18:18.275Z,99974.14
2017-11-19T16:20:46.191Z,99947.97
2017-11-19T16:23:14.096Z,99938.72
2017-11-19T16:25:42.031Z,99921.97
2017-11-19T16:28:09.932Z,99935.68
2017-11-19T16:30:37.888Z,99956.09
2017-11-19T16:33:05.800Z,99914.89
2017-11-19T16:35:34.107Z,99949.30
2017-11-19T16:38:02.016Z,99942.26
2017-11-19T16:40:29.929Z,99927.16
2017-11-19T16:42:57.854Z,99932.84
2017-11-19T16:45:25.776Z,99960.02
2017-11-19T16:47:53.702Z,99967.53
2017-11-19T16:50:21.619Z,99958.20
2017-11-19T16:52:49.527Z,99959.83
2017-11-19T16:55:17.471Z,99997.63
2017-11-19T16:57:45.467Z,99994.45
2017-11-19T17:00:13.397Z,99994.09
2017-11-19T17:02:41.356Z,99993.81
2017-11-19T17:05:09.266Z,99984.90
2017-11-19T17:07:37.175Z,99991.20
2017-11-19T17:10:05.081Z,99994.84
2017-11-19T17:12:32.989Z,100004.16
2017-11-19T17:15:01.290Z,99995.31
2017-11-19T17:17:29.220Z,99998.26
2017-11-19T17:19:57.134Z,99999.13
2017-11-19T17:22:25.055Z,100012.44
2017-11-19T17:24:52.973Z,100012.30
2017-11-19T17:27:20.877Z,100017.03
2017-11-19T17:29:48.802Z,100024.77
2017-11-19T17:32:16.723Z,100021.78
2017-11-19T17:34:44.638Z,100023.98
2017-11-19T17:37:12.582Z,100037.05
2017-11-19T17:39:40.899Z,100026.90
2017-11-19T17:42:08.818Z,100033.48
2017-11-19T17:44:36.721Z,100022.03
2017-11-19T17:47:04.631Z,100022.98
2017-11-19T17:49:32.542Z,100018.84
2017-11-19T17:52:00.465Z,100019.62
2017-11-19T17:54:28.387Z,100023.16
2017-11-19T17:56:56.297Z,100024.78
2017-11-19T17:59:24.223Z,100025.89
2017-11-19T18:01:52.138Z,100031.72
2017-11-19T18:04:20.064Z,100031.67
2017-11-19T18:06:47.977Z,100031.66
2017-11-19T18:09:15.922Z,100036.02
2017-11-19T18:11:43.873Z,100036.99
2017-11-19T18:14:11.785Z,100024.68
2017-11-19T18:16:39.711Z,100029.48
2017-11-19T18:19:07.634Z,100037.64
2017-11-19T18:21:35.969Z,100038.11
2017-11-19T18:24:03.881Z,100042.43
2017-11-19T18:26:31.841Z,100042.47
2017-11-19T18:29:00.295Z,100050.29
2017-11-19T18:31:28.551Z,100047.03
2017-11-19T18:33:56.491Z,100045.23
2017-11-19T18:36:24.797Z,100057.67
2017-11-19T18:38:52.721Z,100062.42
2017-11-19T18:41:20.642Z,100053.91
2017-11-19T18:43:48.646Z,100064.26
2017-11-19T18:46:16.644Z,100060.86
2017-11-19T18:48:44.959Z,100086.39
2017-11-19T18:51:12.947Z,100089.75
2017-11-19T18:53:40.885Z,100084.08
2017-11-19T18:56:08.825Z,100093.55
2017-11-19T18:58:37.180Z,100096.88
2017-11-19T19:01:05.142Z,100106.25
2017-11-19T19:03:33.097Z,100101.03
2017-11-19T19:06:01.018Z,100098.36
2017-11-19T19:08:28.949Z,100105.23
2017-11-19T19:10:56.926Z,100112.91
2017-11-19T19:13:24.867Z,100112.80
2017-11-19T19:15:52.794Z,100117.16
2017-11-19T19:18:21.111Z,100124.09
2017-11-19T19:20:49.052Z,100124.42
2017-11-19T19:23:17.000Z,100127.59
2017-11-19T19:25:44.923Z,100135.35
2017-11-19T19:28:12.847Z,100147.03
2017-11-19T19:30:40.785Z,100146.92
2017-11-19T19:33:09.097Z,100149.33
2017-11-19T19:35:37.031Z,100155.72
2017-11-19T19:38:06.374Z,100161.38
2017-11-19T19:40:34.293Z,100165.23
2017-11-19T19:43:02.266Z,100169.50
2017-11-19T19:45:30.199Z,100169.12
2017-11-19T19:47:58.150Z,100174.73
2017-11-19T19:50:26.076Z,100182.59
2017-11-19T19:52:54.037Z,100190.19
2017-11-19T19:55:21.982Z,100190.70
2017-11-19T19:57:49.957Z,100194.14
2017-11-19T20:00:17.877Z,100208.05
2017-11-19T20:02:45.808Z,100211.23
2017-11-19T20:05:13.801Z,100209.34
2017-11-19T20:07:42.125Z,100221.19
2017-11-19T20:10:10.095Z,100206.27
2017-11-19T20:12:38.023Z,100223.60
2017-11-19T20:15:06.345Z,100227.11
2017-11-19T20:17:34.261Z,100237.06
2017-11-19T20:20:02.589Z,100233.18
2017-11-19T20:22:30.516Z,100245.30
2017-11-19T20:24:58.434Z,100250.02
2017-11-19T20:27:26.845Z,100246.09
2017-11-19T20:29:54.765Z,100259.86
2017-11-19T20:32:22.831Z,100254.27
2017-11-19T20:34:50.740Z,100265.08
2017-11-19T20:37:18.672Z,100278.39
2017-11-19T20:39:46.591Z,100278.23
2017-11-19T20:42:14.956Z,100280.41
2017-11-19T20:44:42.861Z,100286.48
2017-11-19T20:47:10.774Z,100296.11
2017-11-19T20:49:38.718Z,100303.47
2017-11-19T20:52:06.625Z,100300.84
2017-11-19T20:54:34.574Z,100313.83
2017-11-19T20:57:02.520Z,100312.48
2017-11-19T20:59:30.494Z,100310.31
2017-11-19T21:01:58.421Z,100315.79
2017-11-19T21:04:26.739Z,100316.25
2017-11-19T21:06:54.675Z,100329.14
2017-11-19T21:09:22.981Z,100344.22
2017-11-19T21:11:50.910Z,100345.30
2017-11-19T21:14:19.234Z,100367.83
2017-11-19T21:16:47.155Z,100359.99
2017-11-19T21:19:15.486Z,100372.19
2017-11-19T21:21:43.423Z,100370.13
2017-11-19T21:24:11.341Z,100376.05
2017-11-19T21:26:39.250Z,100372.94
2017-11-19T21:29:07.605Z,100379.42
2017-11-19T21:31:35.535Z,100375.98
2017-11-19T21:34:03.481Z,100388.48
2017-11-19T21:36:31.409Z,100394.59
2017-11-19T21:38:59.331Z,100399.03
2017-11-19T21:41:27.259Z,100403.99
2017-11-19T21:43:55.594Z,100401.02
2017-11-19T21:46:23.517Z,100409.58
2017-11-19T21:48:51.441Z,100407.13
2017-11-19T21:51:19.364Z,100409.52
2017-11-19T21:53:47.293Z,100415.53
2017-11-19T21:56:15.221Z,100414.19
2017-11-19T21:58:43.149Z,100420.06
2017-11-19T22:01:11.073Z,100417.94
2017-11-19T22:03:39.022Z,100420.88
2017-11-19T22:06:06.933Z,100425.54
2017-11-19T22:08:34.859Z,100424.96
2017-11-19T22:11:02.770Z,100429.64
2017-11-19T22:13:31.082Z,100431.34
2017-11-19T22:15:59.014Z,100428.06
2017-11-19T22:18:26.927Z,100435.44
2017-11-19T22:20:54.840Z,100438.13
2017-11-19T22:23:22.800Z,100439.78
2017-11-19T22:25:50.725Z,100445.67
2017-11-19T22:28:18.625Z,100452.56
2017-11-19T22:30:46.554Z,100454.09
2017-11-19T22:33:14.551Z,100463.28
2017-11-19T22:35:42.484Z,100462.45
2017-11-19T22:38:10.434Z,100459.05
2017-11-19T22:40:38.341Z,100467.49
2017-11-19T22:43:06.264Z,100469.28
2017-11-19T22:45:34.195Z,100464.94
2017-11-19T22:48:02.106Z,100463.87
2017-11-19T22:50:30.036Z,100476.14
2017-11-19T22:52:57.977Z,100472.55
2017-11-19T22:55:25.912Z,100476.02
2017-11-19T22:57:53.841Z,100468.97
2017-11-19T23:00:21.758Z,100492.27
2017-11-19T23:02:50.069Z,100489.52
2017-11-19T23:05:17.996Z,100486.38
2017-11-19T23:07:46.331Z,100494.42
2017-11-19T23:10:14.251Z,100503.00
2017-11-19T23:12:42.565Z,100501.12
2017-11-19T23:15:10.477Z,100501.20
2017-11-19T23:17:38.418Z,100504.23
2017-11-19T23:20:06.329Z,100504.02
2017-11-19T23:22:34.660Z,100518.22
2017-11-19T23:25:02.589Z,100499.06
2017-11-19T23:27:30.497Z,100522.33
2017-11-19T23:29:58.428Z,100520.22
2017-11-19T23:32:26.353Z,100522.15
2017-11-19T23:34:54.269Z,100524.70
2017-11-19T23:37:22.186Z,100525.49
2017-11-19T23:39:50.102Z,100530.69
2017-11-19T23:42:18.020Z,100532.61
2017-11-19T23:44:45.996Z,100531.33
2017-11-19T23:47:13.921Z,100531.02
2017-11-19T23:49:41.825Z,100543.20
2017-11-19T23:52:09.753Z,100548.58
2017-11-19T23:54:37.670Z,100548.43
2017-11-19T23:57:05.620Z,100554.00
2017-11-19T23:59:33.542Z,100558.75
